Nyk Delphinus — 3ENU7 — position and weather

sailwx.info

Track history (hours):
 
Tides and Currents Weather Stations Pressure Air Temp Water Temp Dewpoint Dewpoint Depression Visibility Wind Speed Wind Dir Waves Ship Positions

Nyk Delphinus

Last reported at 2017-Oct-14 13:55 UTC. Time now 2017-Oct-19 09:13 UTC.
Position N 35°04' E 140°27'.

Length 294 m; draft 10.8 m.

Type: Cargo ship. MMSI: 352776000.

Date/timePositionNaut miles runAvg speedWind from/ knotsBaromVisibWave heightAir tempDewpointWater temp
2017-Oct-14 13:55N 35°04' E 140°27'1619.5
2017-Oct-14 13:06N 34°53' E 140°13'521.2
2017-Oct-14 12:52N 34°50' E 140°08'1220.0
2017-Oct-14 12:15N 34°48' E 139°54'520.4
2017-Oct-14 12:00N 34°47' E 139°47'1019.3
2017-Oct-14 11:30N 34°56' E 139°41'917.7
2017-Oct-14 11:00N 35°04' E 139°40'816.4
2017-Oct-14 10:30N 35°11' E 139°46'611.2
2017-Oct-14 10:00N 35°17' E 139°45'713.2
2017-Oct-14 09:31N 35°23' E 139°42'816.7
2017-Oct-14 09:01N 35°29' E 139°50'611.9
2017-Oct-14 08:30N 35°34' E 139°48'2 3.9
2017-Oct-14 08:00N 35°36' E 139°46'0 0.0
2017-Oct-14 06:24N 35°36' E 139°46'0 0.0
2017-Oct-14 06:00N 35°36' E 139°46'0 0.0
2017-Oct-14 05:24N 35°36' E 139°46'0 0.0
2017-Oct-14 04:48N 35°36' E 139°46'0 0.0
2017-Oct-14 04:27N 35°36' E 139°46'0 0.0
2017-Oct-14 04:00N 35°36' E 139°46'0 0.0
2017-Oct-14 03:30N 35°36' E 139°46'0 0.0
2017-Oct-14 02:57N 35°36' E 139°46'0 0.0
2017-Oct-14 02:30N 35°36' E 139°46'0 0.0
2017-Oct-14 01:57N 35°36' E 139°46'0 0.0
2017-Oct-14 01:30N 35°36' E 139°46'0 0.0
2017-Oct-14 00:51N 35°36' E 139°46'0 0.0
2017-Oct-13 23:33N 35°36' E 139°46'0 0.0
2017-Oct-13 23:30N 35°36' E 139°46'0 0.0
2017-Oct-13 22:58N 35°36' E 139°46'1 1.7
2017-Oct-13 22:30N 35°35' E 139°47'4 8.1
2017-Oct-13 22:00N 35°33' E 139°51'5 9.1
2017-Oct-13 21:30N 35°28' E 139°51'713.7
2017-Oct-13 21:00N 35°23' E 139°46'611.8
2017-Oct-13 20:30N 35°17' E 139°45'611.8
2017-Oct-13 20:00N 35°11' E 139°47'510.1
2017-Oct-13 19:30N 35°06' E 139°45'5 9.9
2017-Oct-13 19:00N 35°02' E 139°42'713.4
2017-Oct-13 18:30N 34°56' E 139°38'815.9
2017-Oct-13 18:00N 34°49' E 139°34'1014.5
2017-Oct-13 17:19N 34°40' E 139°30'231 6.9
2017-Oct-12 07:37N 33°49' E 134°57'216.0
2017-Oct-12 07:28N 33°52' E 134°56'715.6
2017-Oct-12 07:00N 33°58' E 134°54'815.4
2017-Oct-12 06:30N 34°06' E 134°55'714.5
2017-Oct-12 06:01N 34°13' E 134°57'813.6
2017-Oct-12 05:26N 34°21' E 134°59'716.3
2017-Oct-12 05:00N 34°26' E 135°05'917.6
2017-Oct-12 04:30N 34°32' E 135°13'815.2
2017-Oct-12 04:00N 34°38' E 135°18'3 5.1
2017-Oct-12 03:30N 34°41' E 135°17'0 0.2
2017-Oct-12 02:41N 34°41' E 135°17'0 0.0
2017-Oct-12 02:29N 34°41' E 135°17'0 0.0
2017-Oct-12 01:59N 34°41' E 135°17'0 0.0
2017-Oct-12 00:59N 34°41' E 135°17'0 0.0
2017-Oct-12 00:29N 34°41' E 135°17'0 0.0
2017-Oct-11 23:59N 34°41' E 135°17'0 0.0
2017-Oct-11 23:29N 34°41' E 135°17'0 0.0
2017-Oct-11 22:59N 34°41' E 135°17'0 0.0
2017-Oct-11 22:29N 34°41' E 135°17'0 0.0
2017-Oct-11 21:59N 34°41' E 135°17'0 0.0
2017-Oct-11 21:23N 34°41' E 135°17'0 0.0
2017-Oct-11 20:59N 34°41' E 135°17'0 0.0
2017-Oct-11 20:29N 34°41' E 135°17'0 0.0
2017-Oct-11 19:59N 34°41' E 135°17'0 0.0
2017-Oct-11 19:29N 34°41' E 135°17'0 0.0
2017-Oct-11 18:59N 34°41' E 135°17'0 0.0
2017-Oct-11 18:29N 34°41' E 135°17'0 0.0
2017-Oct-11 17:53N 34°41' E 135°17'0 0.0
2017-Oct-11 17:23N 34°41' E 135°17'0 0.0
2017-Oct-11 16:59N 34°41' E 135°17'0 0.0
2017-Oct-10 23:59N 34°41' E 135°17'0 0.0
2017-Oct-10 23:29N 34°41' E 135°17'0 0.0
2017-Oct-10 22:59N 34°41' E 135°17'1 2.1
2017-Oct-10 22:30N 34°40' E 135°18'4 8.3
2017-Oct-10 22:00N 34°36' E 135°18'713.2
2017-Oct-10 21:30N 34°31' E 135°13'918.4
2017-Oct-10 21:00N 34°24' E 135°05'918.3
2017-Oct-10 20:30N 34°17' E 134°59'613.1
2017-Oct-10 20:00N 34°10' E 134°60'510.2
2017-Oct-10 19:30N 34°05' E 134°59'510.5
2017-Oct-10 19:00N 33°60' E 134°57'229 7.3
2017-Oct-09 11:31N 34°42' E 139°30'120.0
2017-Oct-09 11:28N 34°43' E 139°30'919.9
2017-Oct-09 11:00N 34°51' E 139°36'1019.7
2017-Oct-09 10:31N 34°60' E 139°41'816.7
2017-Oct-09 10:00N 35°08' E 139°44'612.1
2017-Oct-09 09:30N 35°13' E 139°46'611.6
2017-Oct-09 09:00N 35°19' E 139°43'612.6
2017-Oct-09 08:30N 35°25' E 139°43'914.5
2017-Oct-09 07:52N 35°32' E 139°51'6 0.7
2017-Oct-08 23:01N 35°36' E 139°46'0 1.3
2017-Oct-08 22:58N 35°36' E 139°46'1 1.5
2017-Oct-08 22:30N 35°36' E 139°47'5 8.9
2017-Oct-08 21:59N 35°33' E 139°51'711.8
2017-Oct-08 21:22N 35°26' E 139°48'512.7
2017-Oct-08 21:00N 35°22' E 139°45'611.3
2017-Oct-08 20:31N 35°16' E 139°46'612.3
2017-Oct-08 20:00N 35°10' E 139°47'510.3
2017-Oct-08 19:30N 35°06' E 139°44'5 9.7
2017-Oct-08 19:01N 35°01' E 139°41'612.4
2017-Oct-08 18:30N 34°55' E 139°40'915.3
2017-Oct-08 17:55N 34°46' E 139°39'  
Track history (hours):
 
Tides and Currents Weather Stations Pressure Air Temp Water Temp Dewpoint Dewpoint Depression Visibility Wind Speed Wind Dir Waves Ship Positions

Nyk Delphinus

Last reported at 2017-Oct-14 13:55 UTC. Time now 2017-Oct-19 09:13 UTC.
Position N 35°04' E 140°27'.

Length 294 m; draft 10.8 m.

Type: Cargo ship. MMSI: 352776000.

Date/timePositionNaut miles runAvg speedWind from/ knotsBaromVisibWave heightAir tempDewpointWater temp
2017-Oct-14 13:55N 35°04' E 140°27'1619.5
2017-Oct-14 13:06N 34°53' E 140°13'521.2
2017-Oct-14 12:52N 34°50' E 140°08'1220.0
2017-Oct-14 12:15N 34°48' E 139°54'520.4
2017-Oct-14 12:00N 34°47' E 139°47'1019.3
2017-Oct-14 11:30N 34°56' E 139°41'917.7
2017-Oct-14 11:00N 35°04' E 139°40'816.4
2017-Oct-14 10:30N 35°11' E 139°46'611.2
2017-Oct-14 10:00N 35°17' E 139°45'713.2
2017-Oct-14 09:31N 35°23' E 139°42'816.7
2017-Oct-14 09:01N 35°29' E 139°50'611.9
2017-Oct-14 08:30N 35°34' E 139°48'2 3.9
2017-Oct-14 08:00N 35°36' E 139°46'0 0.0
2017-Oct-14 06:24N 35°36' E 139°46'0 0.0
2017-Oct-14 06:00N 35°36' E 139°46'0 0.0
2017-Oct-14 05:24N 35°36' E 139°46'0 0.0
2017-Oct-14 04:48N 35°36' E 139°46'0 0.0
2017-Oct-14 04:27N 35°36' E 139°46'0 0.0
2017-Oct-14 04:00N 35°36' E 139°46'0 0.0
2017-Oct-14 03:30N 35°36' E 139°46'0 0.0
2017-Oct-14 02:57N 35°36' E 139°46'0 0.0
2017-Oct-14 02:30N 35°36' E 139°46'0 0.0
2017-Oct-14 01:57N 35°36' E 139°46'0 0.0
2017-Oct-14 01:30N 35°36' E 139°46'0 0.0
2017-Oct-14 00:51N 35°36' E 139°46'0 0.0
2017-Oct-13 23:33N 35°36' E 139°46'0 0.0
2017-Oct-13 23:30N 35°36' E 139°46'0 0.0
2017-Oct-13 22:58N 35°36' E 139°46'1 1.7
2017-Oct-13 22:30N 35°35' E 139°47'4 8.1
2017-Oct-13 22:00N 35°33' E 139°51'5 9.1
2017-Oct-13 21:30N 35°28' E 139°51'713.7
2017-Oct-13 21:00N 35°23' E 139°46'611.8
2017-Oct-13 20:30N 35°17' E 139°45'611.8
2017-Oct-13 20:00N 35°11' E 139°47'510.1
2017-Oct-13 19:30N 35°06' E 139°45'5 9.9
2017-Oct-13 19:00N 35°02' E 139°42'713.4
2017-Oct-13 18:30N 34°56' E 139°38'815.9
2017-Oct-13 18:00N 34°49' E 139°34'1014.5
2017-Oct-13 17:19N 34°40' E 139°30'231 6.9
2017-Oct-12 07:37N 33°49' E 134°57'216.0
2017-Oct-12 07:28N 33°52' E 134°56'715.6
2017-Oct-12 07:00N 33°58' E 134°54'815.4
2017-Oct-12 06:30N 34°06' E 134°55'714.5
2017-Oct-12 06:01N 34°13' E 134°57'813.6
2017-Oct-12 05:26N 34°21' E 134°59'716.3
2017-Oct-12 05:00N 34°26' E 135°05'917.6
2017-Oct-12 04:30N 34°32' E 135°13'815.2
2017-Oct-12 04:00N 34°38' E 135°18'3 5.1
2017-Oct-12 03:30N 34°41' E 135°17'0 0.2
2017-Oct-12 02:41N 34°41' E 135°17'0 0.0
2017-Oct-12 02:29N 34°41' E 135°17'0 0.0
2017-Oct-12 01:59N 34°41' E 135°17'0 0.0
2017-Oct-12 00:59N 34°41' E 135°17'0 0.0
2017-Oct-12 00:29N 34°41' E 135°17'0 0.0
2017-Oct-11 23:59N 34°41' E 135°17'0 0.0
2017-Oct-11 23:29N 34°41' E 135°17'0 0.0
2017-Oct-11 22:59N 34°41' E 135°17'0 0.0
2017-Oct-11 22:29N 34°41' E 135°17'0 0.0
2017-Oct-11 21:59N 34°41' E 135°17'0 0.0
2017-Oct-11 21:23N 34°41' E 135°17'0 0.0
2017-Oct-11 20:59N 34°41' E 135°17'0 0.0
2017-Oct-11 20:29N 34°41' E 135°17'0 0.0
2017-Oct-11 19:59N 34°41' E 135°17'0 0.0
2017-Oct-11 19:29N 34°41' E 135°17'0 0.0
2017-Oct-11 18:59N 34°41' E 135°17'0 0.0
2017-Oct-11 18:29N 34°41' E 135°17'0 0.0
2017-Oct-11 17:53N 34°41' E 135°17'0 0.0
2017-Oct-11 17:23N 34°41' E 135°17'0 0.0
2017-Oct-11 16:59N 34°41' E 135°17'0 0.0
2017-Oct-10 23:59N 34°41' E 135°17'0 0.0
2017-Oct-10 23:29N 34°41' E 135°17'0 0.0
2017-Oct-10 22:59N 34°41' E 135°17'1 2.1
2017-Oct-10 22:30N 34°40' E 135°18'4 8.3
2017-Oct-10 22:00N 34°36' E 135°18'713.2
2017-Oct-10 21:30N 34°31' E 135°13'918.4
2017-Oct-10 21:00N 34°24' E 135°05'918.3
2017-Oct-10 20:30N 34°17' E 134°59'613.1
2017-Oct-10 20:00N 34°10' E 134°60'510.2
2017-Oct-10 19:30N 34°05' E 134°59'510.5
2017-Oct-10 19:00N 33°60' E 134°57'229 7.3
2017-Oct-09 11:31N 34°42' E 139°30'120.0
2017-Oct-09 11:28N 34°43' E 139°30'919.9
2017-Oct-09 11:00N 34°51' E 139°36'1019.7
2017-Oct-09 10:31N 34°60' E 139°41'816.7
2017-Oct-09 10:00N 35°08' E 139°44'612.1
2017-Oct-09 09:30N 35°13' E 139°46'611.6
2017-Oct-09 09:00N 35°19' E 139°43'612.6
2017-Oct-09 08:30N 35°25' E 139°43'914.5
2017-Oct-09 07:52N 35°32' E 139°51'6 0.7
2017-Oct-08 23:01N 35°36' E 139°46'0 1.3
2017-Oct-08 22:58N 35°36' E 139°46'1 1.5
2017-Oct-08 22:30N 35°36' E 139°47'5 8.9
2017-Oct-08 21:59N 35°33' E 139°51'711.8
2017-Oct-08 21:22N 35°26' E 139°48'512.7
2017-Oct-08 21:00N 35°22' E 139°45'611.3
2017-Oct-08 20:31N 35°16' E 139°46'612.3
2017-Oct-08 20:00N 35°10' E 139°47'510.3
2017-Oct-08 19:30N 35°06' E 139°44'5 9.7
2017-Oct-08 19:01N 35°01' E 139°41'612.4
2017-Oct-08 18:30N 34°55' E 139°40'915.3
2017-Oct-08 17:55N 34°46' E 139°39'  

Dump ship's entire track history